createdAt,value
2018-05-27T00:01:08.339Z,18.69
2018-05-27T00:03:36.780Z,18.66
2018-05-27T00:06:05.218Z,18.53
2018-05-27T00:08:33.667Z,18.60
2018-05-27T00:11:02.083Z,18.60
2018-05-27T00:13:30.556Z,18.65
2018-05-27T00:15:58.979Z,18.74
2018-05-27T00:18:27.431Z,18.83
2018-05-27T00:20:55.855Z,18.94
2018-05-27T00:23:24.299Z,19.00
2018-05-27T00:25:52.713Z,19.08
2018-05-27T00:28:21.177Z,19.03
2018-05-27T00:30:49.588Z,19.02
2018-05-27T00:33:18.031Z,19.02
2018-05-27T00:35:46.449Z,19.00
2018-05-27T00:38:14.923Z,18.90
2018-05-27T00:40:43.329Z,18.95
2018-05-27T00:43:11.803Z,18.91
2018-05-27T00:45:40.231Z,18.90
2018-05-27T00:48:08.699Z,18.84
2018-05-27T00:50:37.906Z,18.93
2018-05-27T00:53:07.137Z,18.91
2018-05-27T00:55:35.609Z,18.91
2018-05-27T00:58:04.091Z,18.90
2018-05-27T01:00:32.521Z,18.90
2018-05-27T01:03:00.963Z,18.98
2018-05-27T01:05:29.441Z,19.17
2018-05-27T01:07:57.927Z,19.10
2018-05-27T01:10:26.350Z,19.03
2018-05-27T01:12:54.797Z,19.04
2018-05-27T01:15:23.246Z,19.00
2018-05-27T01:17:51.784Z,18.97
2018-05-27T01:20:20.225Z,18.98
2018-05-27T01:22:49.494Z,19.00
2018-05-27T01:25:17.942Z,19.09
2018-05-27T01:27:46.415Z,18.99
2018-05-27T01:30:15.688Z,19.04
2018-05-27T01:32:44.138Z,19.17
2018-05-27T01:35:12.552Z,19.32
2018-05-27T01:37:41.021Z,19.26
2018-05-27T01:40:09.464Z,19.26
2018-05-27T01:42:37.925Z,19.13
2018-05-27T01:45:07.157Z,19.04
2018-05-27T01:47:35.616Z,19.10
2018-05-27T01:50:04.084Z,19.20
2018-05-27T01:52:32.569Z,19.14
2018-05-27T01:55:01.011Z,19.20
2018-05-27T01:57:29.490Z,19.24
2018-05-27T01:59:57.934Z,19.21
2018-05-27T02:02:26.439Z,19.23
2018-05-27T02:04:55.703Z,19.18
2018-05-27T02:07:24.163Z,19.32
2018-05-27T02:09:52.598Z,19.36
2018-05-27T02:12:21.083Z,19.40
2018-05-27T02:14:49.604Z,19.38
2018-05-27T02:17:18.064Z,19.32
2018-05-27T02:19:47.287Z,19.40
2018-05-27T02:22:15.716Z,19.32
2018-05-27T02:24:44.232Z,19.31
2018-05-27T02:27:12.720Z,19.24
2018-05-27T02:29:41.198Z,19.40
2018-05-27T02:32:09.671Z,19.39
2018-05-27T02:34:39.191Z,19.39
2018-05-27T02:37:09.573Z,19.41
2018-05-27T02:39:38.156Z,19.44
2018-05-27T02:42:06.607Z,19.39
2018-05-27T02:44:35.853Z,19.42
2018-05-27T02:47:04.280Z,19.43
2018-05-27T02:49:32.744Z,19.36
2018-05-27T02:52:01.187Z,19.39
2018-05-27T02:54:29.670Z,19.41
2018-05-27T02:56:58.143Z,19.39
2018-05-27T02:59:26.615Z,19.31
2018-05-27T03:01:55.810Z,19.35
2018-05-27T03:04:24.354Z,19.35
2018-05-27T03:06:52.805Z,19.38
2018-05-27T03:09:21.272Z,19.40
2018-05-27T03:11:50.498Z,19.39
2018-05-27T03:14:18.948Z,19.33
2018-05-27T03:16:47.384Z,19.31
2018-05-27T03:19:15.843Z,19.40
2018-05-27T03:21:45.036Z,19.30
2018-05-27T03:24:14.298Z,19.32
2018-05-27T03:26:42.732Z,19.27
2018-05-27T03:29:11.999Z,19.34
2018-05-27T03:31:40.432Z,19.26
2018-05-27T03:34:08.900Z,19.31
2018-05-27T03:36:38.071Z,19.38
2018-05-27T03:39:06.534Z,19.32
2018-05-27T03:41:34.947Z,19.28
2018-05-27T03:44:03.447Z,19.35
2018-05-27T03:46:32.634Z,19.29
2018-05-27T03:49:01.085Z,19.24
2018-05-27T03:51:29.528Z,19.23
2018-05-27T03:53:58.741Z,19.21
2018-05-27T03:56:27.148Z,19.20
2018-05-27T03:58:55.594Z,19.21
2018-05-27T04:01:24.780Z,19.18
2018-05-27T04:04:10.828Z,19.18
2018-05-27T04:06:56.872Z,19.06
2018-05-27T04:09:26.083Z,19.02
2018-05-27T04:11:54.491Z,18.94
2018-05-27T04:14:22.941Z,18.93
2018-05-27T04:16:52.113Z,18.89
2018-05-27T04:19:20.563Z,18.82
2018-05-27T04:21:48.985Z,18.76
2018-05-27T04:24:17.440Z,18.66
2018-05-27T04:26:45.859Z,18.54
2018-05-27T04:29:14.279Z,18.43
2018-05-27T04:31:42.724Z,18.36
2018-05-27T04:34:11.141Z,18.31
2018-05-27T04:36:39.594Z,18.26
2018-05-27T04:39:08.012Z,18.28
2018-05-27T04:41:36.476Z,18.23
2018-05-27T04:44:05.645Z,18.22
2018-05-27T04:46:34.103Z,18.19
2018-05-27T04:49:02.527Z,18.17
2018-05-27T04:51:31.038Z,18.08
2018-05-27T04:54:00.231Z,18.09
2018-05-27T04:56:28.686Z,18.07
2018-05-27T04:58:57.110Z,18.10
2018-05-27T05:01:26.334Z,18.11
2018-05-27T05:03:54.789Z,18.20
2018-05-27T05:06:23.230Z,18.34
2018-05-27T05:08:51.665Z,18.44
2018-05-27T05:11:20.107Z,18.60
2018-05-27T05:13:48.539Z,18.73
2018-05-27T05:16:17.765Z,19.03
2018-05-27T05:18:46.197Z,19.20
2018-05-27T05:21:14.686Z,19.32
2018-05-27T05:23:43.153Z,19.44
2018-05-27T05:26:11.633Z,19.54
2018-05-27T05:28:40.077Z,19.62
2018-05-27T05:31:08.564Z,19.76
2018-05-27T05:33:36.988Z,19.83
2018-05-27T05:36:05.470Z,19.98
2018-05-27T05:38:33.905Z,20.11
2018-05-27T05:41:03.189Z,20.33
2018-05-27T05:43:31.677Z,20.53
2018-05-27T05:46:00.184Z,20.79
2018-05-27T05:48:29.415Z,20.97
2018-05-27T05:50:57.939Z,21.18
2018-05-27T05:53:26.404Z,21.38
2018-05-27T05:55:54.944Z,21.56
2018-05-27T05:58:24.167Z,21.69
2018-05-27T06:00:52.726Z,21.84
2018-05-27T06:03:21.954Z,21.94
2018-05-27T06:05:50.464Z,21.98
2018-05-27T06:08:18.911Z,22.09
2018-05-27T06:10:47.414Z,22.25
2018-05-27T06:13:15.853Z,22.27
2018-05-27T06:15:44.278Z,22.38
2018-05-27T06:18:12.735Z,22.54
2018-05-27T06:20:41.978Z,22.71
2018-05-27T06:23:10.458Z,22.84
2018-05-27T06:25:38.914Z,22.88
2018-05-27T06:28:08.135Z,22.92
2018-05-27T06:30:36.570Z,23.08
2018-05-27T06:33:05.050Z,23.28
2018-05-27T06:35:33.481Z,23.40
2018-05-27T06:38:02.065Z,23.39
2018-05-27T06:40:30.689Z,23.37
2018-05-27T06:42:59.224Z,23.32
2018-05-27T06:45:28.459Z,23.46
2018-05-27T06:47:57.047Z,23.54
2018-05-27T06:50:25.492Z,23.62
2018-05-27T06:52:53.954Z,23.63
2018-05-27T06:55:22.402Z,23.68
2018-05-27T06:57:50.860Z,23.70
2018-05-27T07:00:20.046Z,23.79
2018-05-27T07:02:48.514Z,23.92
2018-05-27T07:05:16.974Z,23.86
2018-05-27T07:07:45.449Z,23.95
2018-05-27T07:10:13.864Z,23.83
2018-05-27T07:12:42.323Z,23.87
2018-05-27T07:15:11.526Z,24.06
2018-05-27T07:17:39.982Z,24.14
2018-05-27T07:20:08.419Z,24.04
2018-05-27T07:22:36.903Z,23.95
2018-05-27T07:25:05.322Z,23.96
2018-05-27T07:27:34.575Z,23.98
2018-05-27T07:30:03.055Z,23.99
2018-05-27T07:32:31.573Z,23.94
2018-05-27T07:34:59.993Z,24.00
2018-05-27T07:37:28.459Z,24.11
2018-05-27T07:39:56.890Z,24.09
2018-05-27T07:42:25.412Z,24.13
2018-05-27T07:44:53.853Z,24.13
2018-05-27T07:47:22.335Z,24.23
2018-05-27T07:49:50.819Z,24.24
2018-05-27T07:52:19.273Z,24.34
2018-05-27T07:54:47.756Z,24.26
2018-05-27T07:57:16.234Z,24.31
2018-05-27T07:59:44.693Z,24.48
2018-05-27T08:02:13.113Z,24.54
2018-05-27T08:04:42.329Z,24.49
2018-05-27T08:07:11.539Z,24.49
2018-05-27T08:09:40.754Z,24.52
2018-05-27T08:12:09.177Z,24.42
2018-05-27T08:14:37.644Z,24.37
2018-05-27T08:17:06.080Z,24.33
2018-05-27T08:19:34.533Z,24.39
2018-05-27T08:22:03.863Z,24.42
2018-05-27T08:24:33.283Z,24.39
2018-05-27T08:27:02.467Z,24.33
2018-05-27T08:29:32.467Z,24.37
2018-05-27T08:32:01.683Z,24.45
2018-05-27T08:34:30.198Z,24.54
2018-05-27T08:36:58.631Z,24.68
2018-05-27T08:39:27.085Z,24.74
2018-05-27T08:41:55.510Z,24.81
2018-05-27T08:44:23.973Z,24.81
2018-05-27T08:46:52.403Z,25.03
2018-05-27T08:49:21.624Z,25.07
2018-05-27T08:51:50.814Z,25.15
2018-05-27T08:54:20.077Z,25.29
2018-05-27T08:56:48.512Z,25.40
2018-05-27T08:59:17.739Z,25.48
2018-05-27T09:01:46.273Z,25.52
2018-05-27T09:04:14.726Z,25.66
2018-05-27T09:06:43.135Z,25.76
2018-05-27T09:09:11.759Z,25.80
2018-05-27T09:11:40.986Z,25.92
2018-05-27T09:14:09.434Z,25.95
2018-05-27T09:16:37.856Z,25.94
2018-05-27T09:19:06.306Z,26.09
2018-05-27T09:21:35.496Z,26.18
2018-05-27T09:24:03.935Z,26.21
2018-05-27T09:26:32.381Z,26.30
2018-05-27T09:29:01.589Z,26.32
2018-05-27T09:31:30.764Z,26.14
2018-05-27T09:33:59.863Z,26.26
2018-05-27T09:36:28.275Z,26.21
2018-05-27T09:38:57.482Z,26.34
2018-05-27T09:41:26.668Z,26.21
2018-05-27T09:43:55.932Z,26.29
2018-05-27T09:46:24.356Z,26.18
2018-05-27T09:48:53.677Z,26.15
2018-05-27T09:51:22.128Z,25.75
2018-05-27T09:53:50.631Z,25.69
2018-05-27T09:56:19.967Z,25.51
2018-05-27T09:58:48.445Z,25.43
2018-05-27T10:01:16.972Z,25.38
2018-05-27T10:03:46.061Z,25.23
2018-05-27T10:06:14.592Z,25.10
2018-05-27T10:08:43.801Z,25.03
2018-05-27T10:11:13.013Z,24.86
2018-05-27T10:13:41.436Z,24.63
2018-05-27T10:16:09.901Z,24.60
2018-05-27T10:18:38.372Z,24.49
2018-05-27T10:21:06.837Z,24.27
2018-05-27T10:23:36.060Z,24.20
2018-05-27T10:26:04.555Z,24.06
2018-05-27T10:28:32.973Z,24.04
2018-05-27T10:31:01.444Z,23.89
2018-05-27T10:33:29.855Z,23.82
2018-05-27T10:35:58.325Z,23.73
2018-05-27T10:38:26.761Z,23.56
2018-05-27T10:40:55.237Z,23.52
2018-05-27T10:43:23.651Z,23.42
2018-05-27T10:45:52.115Z,23.39
2018-05-27T10:48:21.314Z,23.37
2018-05-27T10:50:50.572Z,23.38
2018-05-27T10:53:19.009Z,23.41
2018-05-27T10:55:47.475Z,23.38
2018-05-27T10:58:16.660Z,23.30
2018-05-27T11:00:45.101Z,23.18
2018-05-27T11:03:13.540Z,23.07
2018-05-27T11:05:41.992Z,22.93
2018-05-27T11:08:10.422Z,22.65
2018-05-27T11:10:39.676Z,22.56
2018-05-27T11:13:08.140Z,22.57
2018-05-27T11:15:36.595Z,22.53
2018-05-27T11:18:05.781Z,22.47
2018-05-27T11:20:35.045Z,22.39
2018-05-27T11:23:03.520Z,22.22
2018-05-27T11:25:32.036Z,22.15
2018-05-27T11:28:00.483Z,22.17
2018-05-27T11:30:28.980Z,22.18
2018-05-27T11:32:57.423Z,22.16
2018-05-27T11:35:26.660Z,22.12
2018-05-27T11:37:55.099Z,22.15
2018-05-27T11:40:23.553Z,22.16
2018-05-27T11:42:51.968Z,22.15
2018-05-27T11:45:20.460Z,22.14
2018-05-27T11:47:48.902Z,22.09
2018-05-27T11:50:17.351Z,22.10
2018-05-27T11:52:45.769Z,22.08
2018-05-27T11:55:14.240Z,22.04
2018-05-27T11:57:42.699Z,22.01
2018-05-27T12:00:11.187Z,21.98
2018-05-27T12:02:39.711Z,22.06
2018-05-27T12:05:08.169Z,22.14
2018-05-27T12:07:36.587Z,22.06
2018-05-27T12:10:05.110Z,22.02
2018-05-27T12:12:34.307Z,21.95
2018-05-27T12:15:02.757Z,21.93
2018-05-27T12:17:31.199Z,21.93
2018-05-27T12:19:59.618Z,21.88
2018-05-27T12:22:28.116Z,21.87
2018-05-27T12:24:56.569Z,21.79
2018-05-27T12:27:25.159Z,21.72
2018-05-27T12:29:53.616Z,21.64
2018-05-27T12:32:22.111Z,21.61
2018-05-27T12:34:51.335Z,21.55
2018-05-27T12:37:19.882Z,21.52
2018-05-27T12:39:48.342Z,21.56
2018-05-27T12:42:16.805Z,21.47
2018-05-27T12:44:45.246Z,21.43
2018-05-27T12:47:14.559Z,21.46
2018-05-27T12:49:43.031Z,21.46
2018-05-27T12:52:12.305Z,21.46
2018-05-27T12:54:40.776Z,21.44
2018-05-27T12:57:09.231Z,21.42
2018-05-27T12:59:37.679Z,21.35
2018-05-27T13:02:06.968Z,21.30
2018-05-27T13:04:35.398Z,21.27
2018-05-27T13:07:03.879Z,21.23
2018-05-27T13:09:33.129Z,21.28
2018-05-27T13:12:01.600Z,21.31
2018-05-27T13:14:30.098Z,21.26
2018-05-27T13:16:58.872Z,21.29
2018-05-27T13:19:27.037Z,21.22
2018-05-27T13:21:55.516Z,21.18
2018-05-27T13:24:24.000Z,21.15
2018-05-27T13:26:52.478Z,21.20
2018-05-27T13:29:20.905Z,21.23
2018-05-27T13:31:49.779Z,21.34
2018-05-27T13:34:18.239Z,21.50
2018-05-27T13:36:47.486Z,21.66
2018-05-27T13:39:15.946Z,21.80
2018-05-27T13:41:44.393Z,21.77
2018-05-27T13:44:12.877Z,21.83
2018-05-27T13:46:41.391Z,21.89
2018-05-27T13:49:09.842Z,21.91
2018-05-27T13:51:38.307Z,21.81
2018-05-27T13:54:06.762Z,22.08
2018-05-27T13:56:35.272Z,22.26
2018-05-27T13:59:03.725Z,22.37
2018-05-27T14:01:32.211Z,22.42
2018-05-27T14:04:00.640Z,22.50
2018-05-27T14:06:29.125Z,22.59
2018-05-27T14:08:57.580Z,22.71
2018-05-27T14:11:26.075Z,22.85
2018-05-27T14:13:54.556Z,22.90
2018-05-27T14:16:23.056Z,22.99
2018-05-27T14:18:51.568Z,23.16
2018-05-27T14:21:20.062Z,23.26
2018-05-27T14:23:49.330Z,23.46
2018-05-27T14:26:17.845Z,23.57
2018-05-27T14:28:46.331Z,23.71
2018-05-27T14:31:15.546Z,23.84
2018-05-27T14:33:44.802Z,24.07
2018-05-27T14:36:13.276Z,24.20
2018-05-27T14:38:42.291Z,24.45
2018-05-27T14:41:11.466Z,24.86
2018-05-27T14:43:40.701Z,24.97
2018-05-27T14:46:09.175Z,24.94
2018-05-27T14:48:37.677Z,24.79
2018-05-27T14:51:06.162Z,24.82
2018-05-27T14:53:34.709Z,24.96
2018-05-27T14:56:03.190Z,25.10
2018-05-27T14:58:31.683Z,25.00
2018-05-27T15:01:00.176Z,24.96
2018-05-27T15:03:28.719Z,24.89
2018-05-27T15:05:57.167Z,24.76
2018-05-27T15:08:25.640Z,24.59
2018-05-27T15:10:54.108Z,24.46
2018-05-27T15:13:22.589Z,24.42
2018-05-27T15:15:51.043Z,24.43
2018-05-27T15:18:19.545Z,24.45
2018-05-27T15:20:48.739Z,24.48
2018-05-27T15:23:18.009Z,24.48
2018-05-27T15:25:46.455Z,24.49
2018-05-27T15:28:14.953Z,24.53
2018-05-27T15:30:43.403Z,24.58
2018-05-27T15:33:11.896Z,24.60
2018-05-27T15:35:40.326Z,24.60
2018-05-27T15:38:08.798Z,24.63
2018-05-27T15:40:37.220Z,24.63
2018-05-27T15:43:05.658Z,24.65
2018-05-27T15:45:34.565Z,24.63
2018-05-27T15:48:03.009Z,24.58
2018-05-27T15:50:32.203Z,24.53
2018-05-27T15:53:01.424Z,24.71
2018-05-27T15:55:29.827Z,24.76
2018-05-27T15:57:58.280Z,24.64
2018-05-27T16:00:27.451Z,24.60
2018-05-27T16:02:55.899Z,24.56
2018-05-27T16:05:24.373Z,24.51
2018-05-27T16:07:53.670Z,24.46
2018-05-27T16:10:22.089Z,24.43
2018-05-27T16:12:50.525Z,24.41
2018-05-27T16:15:19.699Z,24.40
2018-05-27T16:17:48.161Z,24.41
2018-05-27T16:20:16.562Z,24.42
2018-05-27T16:22:45.046Z,24.41
2018-05-27T16:25:13.515Z,24.39
2018-05-27T16:27:41.942Z,24.39
2018-05-27T16:30:11.169Z,24.37
2018-05-27T16:32:39.592Z,24.35
2018-05-27T16:35:08.043Z,24.35
2018-05-27T16:37:36.484Z,24.34
2018-05-27T16:40:04.957Z,24.33
2018-05-27T16:42:33.405Z,24.33
2018-05-27T16:45:01.879Z,24.31
2018-05-27T16:47:30.385Z,24.33
2018-05-27T16:49:58.831Z,24.32
2018-05-27T16:52:27.279Z,24.40
2018-05-27T16:54:55.723Z,24.37
2018-05-27T16:57:24.216Z,24.37
2018-05-27T16:59:52.695Z,24.31
2018-05-27T17:02:21.143Z,24.44
2018-05-27T17:04:49.602Z,24.55
2018-05-27T17:07:18.002Z,24.49
2018-05-27T17:09:46.482Z,24.43
2018-05-27T17:12:14.864Z,24.33
2018-05-27T17:14:43.311Z,24.23
2018-05-27T17:17:11.706Z,24.20
2018-05-27T17:19:40.129Z,24.18
2018-05-27T17:22:09.470Z,24.23
2018-05-27T17:24:37.921Z,24.23
2018-05-27T17:27:07.123Z,24.20
2018-05-27T17:29:36.344Z,24.18
2018-05-27T17:32:04.818Z,24.15
2018-05-27T17:34:34.073Z,24.11
2018-05-27T17:37:02.536Z,24.12
2018-05-27T17:39:30.982Z,24.14
2018-05-27T17:41:59.409Z,24.17
2018-05-27T17:44:27.853Z,24.18
2018-05-27T17:46:57.043Z,24.20
2018-05-27T17:49:25.494Z,24.23
2018-05-27T17:51:53.915Z,24.21
2018-05-27T17:54:22.376Z,24.22
2018-05-27T17:56:50.810Z,24.20
2018-05-27T17:59:20.041Z,24.12
2018-05-27T18:01:48.459Z,23.99
2018-05-27T18:04:16.943Z,23.85
2018-05-27T18:06:45.394Z,23.79
2018-05-27T18:09:13.836Z,23.77
2018-05-27T18:11:42.267Z,23.71
2018-05-27T18:14:10.767Z,23.52
2018-05-27T18:16:39.222Z,23.47
2018-05-27T18:19:07.716Z,23.46
2018-05-27T18:21:36.144Z,23.46
2018-05-27T18:24:04.759Z,23.45
2018-05-27T18:26:33.431Z,23.29
2018-05-27T18:29:02.625Z,23.16
2018-05-27T18:31:31.267Z,23.06
2018-05-27T18:33:59.731Z,23.05
2018-05-27T18:36:28.939Z,23.02
2018-05-27T18:38:57.391Z,22.87
2018-05-27T18:41:25.868Z,22.75
2018-05-27T18:43:54.285Z,22.59
2018-05-27T18:46:23.523Z,22.46
2018-05-27T18:48:52.932Z,22.45
2018-05-27T18:51:21.417Z,22.43
2018-05-27T18:53:50.632Z,22.33
2018-05-27T18:56:19.156Z,22.09
2018-05-27T18:58:48.356Z,21.92
2018-05-27T19:01:16.817Z,21.83
2018-05-27T19:03:45.290Z,21.81
2018-05-27T19:06:13.832Z,21.68
2018-05-27T19:08:44.129Z,21.58
2018-05-27T19:11:13.434Z,21.49
2018-05-27T19:13:42.655Z,21.31
2018-05-27T19:16:11.207Z,21.29
2018-05-27T19:18:39.738Z,21.13
2018-05-27T19:21:11.019Z,21.11
2018-05-27T19:23:39.656Z,20.93
2018-05-27T19:26:08.197Z,20.76
2018-05-27T19:28:36.795Z,20.62
2018-05-27T19:31:05.334Z,20.40
2018-05-27T19:33:34.751Z,20.39
2018-05-27T19:36:03.211Z,20.39
2018-05-27T19:38:32.398Z,20.33
2018-05-27T19:41:00.850Z,20.35
2018-05-27T19:43:29.306Z,20.38
2018-05-27T19:45:57.837Z,20.36
2018-05-27T19:48:26.289Z,20.31
2018-05-27T19:50:54.783Z,20.29
2018-05-27T19:53:23.391Z,20.27
2018-05-27T19:55:51.880Z,20.29
2018-05-27T19:58:20.386Z,20.27
2018-05-27T20:00:49.032Z,20.26
2018-05-27T20:03:17.631Z,20.22
2018-05-27T20:05:46.102Z,20.25
2018-05-27T20:08:14.546Z,20.24
2018-05-27T20:10:43.820Z,20.12
2018-05-27T20:13:12.351Z,20.09
2018-05-27T20:15:41.788Z,20.01
2018-05-27T20:18:10.379Z,20.03
2018-05-27T20:20:38.858Z,19.97
2018-05-27T20:23:07.389Z,19.94
2018-05-27T20:25:35.863Z,19.90
2018-05-27T20:28:04.402Z,19.89
2018-05-27T20:30:33.027Z,19.84
2018-05-27T20:33:01.510Z,19.87
2018-05-27T20:35:30.031Z,19.88
2018-05-27T20:37:58.490Z,19.90
2018-05-27T20:40:27.095Z,19.86
2018-05-27T20:42:55.561Z,19.83
2018-05-27T20:45:24.170Z,19.83
2018-05-27T20:47:52.821Z,19.85
2018-05-27T20:50:21.352Z,19.85
2018-05-27T20:52:50.702Z,19.81
2018-05-27T20:55:19.338Z,19.77
2018-05-27T20:57:47.850Z,19.75
2018-05-27T21:00:16.499Z,19.70
2018-05-27T21:02:45.077Z,19.68
2018-05-27T21:05:13.602Z,19.72
2018-05-27T21:07:42.989Z,19.73
2018-05-27T21:10:11.439Z,19.73
2018-05-27T21:12:40.012Z,19.68
2018-05-27T21:15:08.449Z,19.72
2018-05-27T21:17:37.058Z,19.74
2018-05-27T21:20:06.388Z,19.75
2018-05-27T21:22:34.979Z,19.71
2018-05-27T21:25:04.172Z,19.70
2018-05-27T21:27:32.661Z,19.62
2018-05-27T21:30:01.081Z,19.48
2018-05-27T21:32:29.550Z,19.41
2018-05-27T21:34:58.009Z,19.34
2018-05-27T21:37:26.499Z,19.27
2018-05-27T21:39:54.954Z,19.27
2018-05-27T21:42:23.490Z,19.25
2018-05-27T21:44:51.921Z,19.19
2018-05-27T21:47:20.372Z,19.16
2018-05-27T21:49:48.796Z,19.07
2018-05-27T21:52:17.256Z,19.04
2018-05-27T21:54:45.715Z,19.00
2018-05-27T21:57:14.151Z,18.92
2018-05-27T21:59:43.353Z,18.85
2018-05-27T22:02:11.847Z,18.80
2018-05-27T22:04:40.283Z,18.77
2018-05-27T22:07:08.756Z,18.72
2018-05-27T22:09:37.172Z,18.63
2018-05-27T22:12:05.617Z,18.57
2018-05-27T22:14:34.041Z,18.51
2018-05-27T22:17:02.471Z,18.46
2018-05-27T22:19:30.899Z,18.48
2018-05-27T22:21:59.353Z,18.44
2018-05-27T22:24:27.842Z,18.44
2018-05-27T22:26:56.357Z,18.39
2018-05-27T22:29:24.819Z,18.39
2018-05-27T22:31:53.303Z,18.35
2018-05-27T22:34:22.491Z,18.28
2018-05-27T22:36:50.963Z,18.26
2018-05-27T22:39:19.416Z,18.25
2018-05-27T22:41:47.866Z,18.27
2018-05-27T22:44:16.293Z,18.29
2018-05-27T22:46:44.702Z,18.30
2018-05-27T22:49:13.222Z,18.27
2018-05-27T22:51:42.421Z,18.23
2018-05-27T22:54:10.867Z,18.16
2018-05-27T22:56:40.076Z,18.13
2018-05-27T22:59:09.337Z,18.09
2018-05-27T23:01:37.738Z,18.11
2018-05-27T23:04:06.201Z,18.08
2018-05-27T23:06:34.661Z,18.07
2018-05-27T23:09:03.179Z,17.94
2018-05-27T23:11:31.640Z,17.79
2018-05-27T23:14:00.133Z,17.72
2018-05-27T23:16:28.627Z,17.69
2018-05-27T23:18:57.107Z,17.69
2018-05-27T23:21:25.584Z,17.70
2018-05-27T23:23:54.090Z,17.72
2018-05-27T23:26:22.585Z,17.70
2018-05-27T23:28:51.109Z,17.65
2018-05-27T23:31:19.586Z,17.60
2018-05-27T23:33:48.863Z,17.57
2018-05-27T23:36:17.318Z,17.52
2018-05-27T23:38:45.821Z,17.46
2018-05-27T23:41:15.155Z,17.36
2018-05-27T23:43:44.496Z,17.34
2018-05-27T23:46:12.975Z,17.31
2018-05-27T23:48:41.435Z,17.29
2018-05-27T23:51:10.740Z,17.25
2018-05-27T23:53:39.974Z,17.19
2018-05-27T23:56:08.403Z,17.15
2018-05-27T23:58:36.860Z,17.14
